WetterOnline ( https://www.wetteronline.de )

Wetter aktuell Sankt Peter-Ording

Aktuelles Wetter: St. Peter-Ording (11m)

6-stündlich | Neueste Meldungen
Ortszeit Temperatur Wetter
Mo, 04.03. 13:00 10.1° C bewölkt
Mo, 04.03. 7:00 5.8° C bedeckt
Mo, 04.03. 1:00 5.8° C Nebel
So, 03.03. 19:00 7.4° C bedeckt
So, 03.03. 13:00 11.7° C leicht bewölkt
So, 03.03. 7:00 4.6° C bedeckt
So, 03.03. 1:00 5.5° C wolkig
Sa, 02.03. 19:00 7.0° C wolkig
Ortszeit Temperatur Wetter
Mo, 04.03. 14:30 11.6° C wolkig
Mo, 04.03. 14:20 11.6° C wolkig
Mo, 04.03. 14:10 11.3° C wolkig
Mo, 04.03. 14:00 11.4° C bedeckt
Mo, 04.03. 13:50 11.4° C bedeckt
Mo, 04.03. 13:40 10.8° C bedeckt
Mo, 04.03. 13:30 10.1° C bedeckt
Mo, 04.03. 13:00 10.1° C bewölkt
Mo, 04.03. 12:30 8.7° C bedeckt
Mo, 04.03. 12:00 8.4° C bewölkt
Mo, 04.03. 11:30 8.3° C bewölkt
Ortszeit Relative Feuchte Sichtweite
Mo, 04.03. 13:00 82% 11 km
Mo, 04.03. 7:00 96% 3.7 km
Mo, 04.03. 1:00 100% 100 m
So, 03.03. 19:00 97% 2.3 km
So, 03.03. 13:00 79% 9 km
So, 03.03. 7:00 97% 4.4 km
So, 03.03. 1:00 93% 10 km
Sa, 02.03. 19:00 88% 28 km
Ortszeit Relative Feuchte Sichtweite
Mo, 04.03. 14:30 77% 11 km
Mo, 04.03. 14:20 77% -
Mo, 04.03. 14:10 76% -
Mo, 04.03. 14:00 79% 13 km
Mo, 04.03. 13:50 79% -
Mo, 04.03. 13:40 80% -
Mo, 04.03. 13:30 82% 12 km
Mo, 04.03. 13:00 82% 11 km
Mo, 04.03. 12:30 87% 8 km
Mo, 04.03. 12:00 89% 6 km
Mo, 04.03. 11:30 88% 7 km
Ortszeit Niederschlagsmenge Niederschlagsart
Mo, 04.03. 13:00 0.0 l/m2 in 6 Std. -
Mo, 04.03. 7:00 0.0 l/m2 in 12 Std. -
Mo, 04.03. 1:00 0.0 l/m2 in 6 Std. -
So, 03.03. 19:00 0.0 l/m2 in 12 Std. -
So, 03.03. 13:00 0.0 l/m2 in 6 Std. -
So, 03.03. 7:00 0.0 l/m2 in 12 Std. -
So, 03.03. 1:00 0.0 l/m2 in 6 Std. -
Sa, 02.03. 19:00 0.0 l/m2 in 12 Std. -
Ortszeit Niederschlagsmenge Niederschlagsart
Mo, 04.03. 14:30 0.0 l/m2 in 30 Min -
Mo, 04.03. 14:20 keine Meldung -
Mo, 04.03. 14:10 keine Meldung -
Mo, 04.03. 14:00 0.0 l/m2 in 1 Std. -
Mo, 04.03. 13:50 keine Meldung -
Mo, 04.03. 13:40 keine Meldung -
Mo, 04.03. 13:30 0.0 l/m2 in 30 Min -
Mo, 04.03. 13:00 0.0 l/m2 in 1 Std. -
Mo, 04.03. 12:30 0.0 l/m2 in 30 Min -
Mo, 04.03. 12:00 0.0 l/m2 in 1 Std. -
Mo, 04.03. 11:30 0.0 l/m2 in 30 Min -
Ortszeit Stärke Spitze Richtung
km/h Bft. km/h Grad Sektor
Mo, 04.03. 13:00 25 4 32 90° O
Mo, 04.03. 7:00 14 3 29 80° O
Mo, 04.03. 1:00 19 3 35 80° O
So, 03.03. 19:00 19 3 39 90° O
So, 03.03. 13:00 22 4 36 90° O
So, 03.03. 7:00 13 3 22 100° O
So, 03.03. 1:00 13 3 20 100° O
Sa, 02.03. 19:00 7 2 25 100° O
Ortszeit Stärke Spitze Richtung
km/h Bft. km/h Grad Sektor
Mo, 04.03. 14:30 24 4 39 90° O
Mo, 04.03. 14:20 24 4 - 90° O
Mo, 04.03. 14:10 28 4 - 100° O
Mo, 04.03. 14:00 24 4 37 90° O
Mo, 04.03. 13:50 24 4 - 90° O
Mo, 04.03. 13:40 26 4 - 90° O
Mo, 04.03. 13:30 22 4 36 80° O
Mo, 04.03. 13:00 25 4 32 90° O
Mo, 04.03. 12:30 20 4 31 90° O
Mo, 04.03. 12:00 18 3 32 90° O
Mo, 04.03. 11:30 22 4 32 90° O
Ortszeit Untergrenze Bedeckung Gattung
total tief tief mittel hoch
Mo, 04.03. 13:00 270 m 7/8 6/8 - - -
Mo, 04.03. 7:00 1500 m 8/8 8/8 - - -
Mo, 04.03. 1:00 <30 m 8/8 0/8 - - -
So, 03.03. 19:00 90 m 8/8 8/8 - - -
So, 03.03. 13:00 7800 m 4/8 0/8 - - -
So, 03.03. 7:00 5100 m 8/8 8/8 - - -
So, 03.03. 1:00 6900 m 8/8 3/8 - - -
Sa, 02.03. 19:00 7800 m 8/8 0/8 - - -
Ortszeit Bedeckungsgrad in Achtel und Wolkenuntergrenze
Mo, 04.03. 14:30 4(1500m) 6(2100m)
Mo, 04.03. 14:20 4(1500m) 6(2100m)
Mo, 04.03. 14:10 6
Mo, 04.03. 14:00 8(2100m)
Mo, 04.03. 13:50 8(2100m)
Mo, 04.03. 13:40 8
Mo, 04.03. 13:30 8(2100m)
Mo, 04.03. 13:00 1(270m) 6(2100m) 7(6600m)
Mo, 04.03. 12:30 2(240m) 6(1500m) 8(2100m)
Mo, 04.03. 12:00 5(210m) 6(1440m) 7(1800m)
Mo, 04.03. 11:30 7(210m) 7(2100m)
Ortszeit Luftdruck NN (hPa) Tendenz (hPa in 3 Std.)
Mo, 04.03. 13:00 1012 + 0,3
Mo, 04.03. 7:00 1010 + 1,2
Mo, 04.03. 1:00 1008 + 0,8
So, 03.03. 19:00 1006 + 1,4
So, 03.03. 13:00 1005 - 0,2
So, 03.03. 7:00 1005 + 0,4
So, 03.03. 1:00 1005 - 0,2
Sa, 02.03. 19:00 1005 + 0,5
Ortszeit Luftdruck NN (hPa) Tendenz (hPa in 3 Std.)
Mo, 04.03. 14:30 1012 + 0,3
Mo, 04.03. 14:20 1012 keine Meldung
Mo, 04.03. 14:10 1012 keine Meldung
Mo, 04.03. 14:00 1012 + 0,3
Mo, 04.03. 13:50 1012 keine Meldung
Mo, 04.03. 13:40 1012 keine Meldung
Mo, 04.03. 13:30 1012 + 0,3
Mo, 04.03. 13:00 1012 + 0,3
Mo, 04.03. 12:30 1012 + 0,7
Mo, 04.03. 12:00 1012 + 0,9
Mo, 04.03. 11:30 1012 + 1,0
Ortszeit Schneehöhe (cm)
Mo, 04.03. 13:00 0
Mo, 04.03. 7:00 0
Mo, 04.03. 1:00 0
So, 03.03. 19:00 0
So, 03.03. 13:00 0
So, 03.03. 7:00 0
So, 03.03. 1:00 0
Sa, 02.03. 19:00 0
Ortszeit Schneehöhe (cm)
Mo, 04.03. 14:30 0
Mo, 04.03. 14:20 0
Mo, 04.03. 14:10 -
Mo, 04.03. 14:00 0
Mo, 04.03. 13:50 0
Mo, 04.03. 13:40 -
Mo, 04.03. 13:30 0
Mo, 04.03. 13:00 0
Mo, 04.03. 12:30 0
Mo, 04.03. 12:00 0
Mo, 04.03. 11:30 0
Link zu dieser Seite / Seite empfehlen

Das Wetter in ...